Aiken, Texas
Current Conditions -  °F | °C
As of 5:55 PM on Thursday 27 Nov 2014 (Local Time) from KPVW Reporting Station
Clear Clear  
Wind Chill: 50°   Ceiling: Unl
Heat Index: 50°   Visibility: 10mi
Dew Point: 30°   Wind: 7mph
Humidity: 46%   Direction: 200°SSW
Pressure: 30.27"   Gusts: NA
Location:  34.14°N, 101.53°W
Report Text: KPVW 272355Z AUTO 20006KT 10SM CLR 10/M01 A3027 RMK AO2 T01011010 10141 20100
Loading
Personal Weather Stations






























Interactive Weather Map New forecast layout! Learn more

10-Day Weather Forecast

Advertisements
Track Severe Weather on mobile